Terminal Aerodrome Forecast
Issued by NWS Denver/Boulder, CO

Home | Current Version | Previous Version | Text Only | Print | Product List | Glossary On
Versions: 1 2 3 4 5 6 7 8 9 10 11 12 13 14 15 16 17 18 19 20 21 22 23 24 25 26 27 28 29 30 31 32 33 34 35 36 37 38 39 40 41 42 43 44 45 46
000
FTUS45 KBOU 070355 AAD
TAFDEN
TAF AMD
KDEN 070355Z 0704/0806 12013KT 5SM -SN OVC030
     FM070440 12010KT 3/4SM -SN SCT005 OVC010
     FM070600 08009KT 1SM -SN BR BKN009 OVC015
      TEMPO 0707/0711 1/2SM SN FZFG OVC006
     FM071400 02012KT 3SM -SN BKN014 OVC025
     FM071700 35010KT P6SM VCSH SCT025 BKN040
     FM072200 04008KT P6SM SCT050 BKN080=

USA.gov is the U.S. government's official web portal to all federal, state and local government web resources and services.